Miedwie — C6XP5 — position and weather

sailwx.info

Track history (hours):
 
Tides and Currents Weather Stations Pressure Air Temp Water Temp Dewpoint Dewpoint Depression Visibility Wind Speed Wind Dir Waves Ship Positions

Miedwie

Last reported at 2014-Oct-31 05:32 UTC. Time now 2014-Nov-01 04:54 UTC.
Position N 44°00' W 076°30'.

Length 190 m; draft 8.1 m.

Type: Cargo ship. MMSI: 311018300.

Date/timePositionNaut miles runAvg speedWind from/ knotsBaromVisibWave heightAir tempDewpointWater temp
2014-Oct-31 05:32N 44°00' W 076°30'1110.9
2014-Oct-31 04:33N 44°08' W 076°20'99 7.0
2014-Oct-30 14:27N 45°07' W 074°28'910.1
2014-Oct-30 13:33N 45°12' W 074°18'9 9.1
2014-Oct-30 12:33N 45°13' W 074°05'8 7.4
2014-Oct-30 11:32N 45°17' W 073°56'2 1.5
2014-Oct-30 10:34N 45°19' W 073°55'1 0.9
2014-Oct-30 09:33N 45°20' W 073°55'8 7.9
2014-Oct-30 08:33N 45°24' W 073°46'7 6.9
2014-Oct-30 07:33N 45°24' W 073°36'2 1.7
2014-Oct-30 06:33N 45°24' W 073°34'4 4.1
2014-Oct-30 05:34N 45°28' W 073°30'2 2.2
2014-Oct-30 04:34N 45°30' W 073°31'3 3.2
2014-Oct-30 03:34N 45°33' W 073°31'1 0.8
2014-Oct-30 02:33N 45°34' W 073°31'0 0.0
2014-Oct-30 01:33N 45°34' W 073°31'0 0.0
2014-Oct-30 00:33N 45°34' W 073°31'0 0.0
2014-Oct-29 23:33N 45°34' W 073°31'0 0.0
2014-Oct-29 22:33N 45°34' W 073°31'0 0.0
2014-Oct-29 21:27N 45°34' W 073°31'0 0.0
2014-Oct-29 20:15N 45°34' W 073°31'0 0.0
2014-Oct-29 17:33N 45°34' W 073°31'1 0.8
2014-Oct-29 16:34N 45°34' W 073°30'7 6.7
2014-Oct-29 15:34N 45°41' W 073°27'9 9.1
2014-Oct-29 14:34N 45°48' W 073°20'10 9.4
2014-Oct-29 13:30N 45°57' W 073°13'9 7.6
2014-Oct-29 12:22N 46°04' W 073°05'8 8.4
2014-Oct-29 11:26N 46°09' W 072°57'9 9.9
2014-Oct-29 10:33N 46°14' W 072°46'8 8.3
2014-Oct-29 09:33N 46°17' W 072°36'7 7.5
2014-Oct-29 08:33N 46°23' W 072°28'10 9.9
2014-Oct-29 07:34N 46°27' W 072°15'  
Track history (hours):
 
Tides and Currents Weather Stations Pressure Air Temp Water Temp Dewpoint Dewpoint Depression Visibility Wind Speed Wind Dir Waves Ship Positions

Miedwie

Last reported at 2014-Oct-31 05:32 UTC. Time now 2014-Nov-01 04:54 UTC.
Position N 44°00' W 076°30'.

Length 190 m; draft 8.1 m.

Type: Cargo ship. MMSI: 311018300.

Date/timePositionNaut miles runAvg speedWind from/ knotsBaromVisibWave heightAir tempDewpointWater temp
2014-Oct-31 05:32N 44°00' W 076°30'1110.9
2014-Oct-31 04:33N 44°08' W 076°20'99 7.0
2014-Oct-30 14:27N 45°07' W 074°28'910.1
2014-Oct-30 13:33N 45°12' W 074°18'9 9.1
2014-Oct-30 12:33N 45°13' W 074°05'8 7.4
2014-Oct-30 11:32N 45°17' W 073°56'2 1.5
2014-Oct-30 10:34N 45°19' W 073°55'1 0.9
2014-Oct-30 09:33N 45°20' W 073°55'8 7.9
2014-Oct-30 08:33N 45°24' W 073°46'7 6.9
2014-Oct-30 07:33N 45°24' W 073°36'2 1.7
2014-Oct-30 06:33N 45°24' W 073°34'4 4.1
2014-Oct-30 05:34N 45°28' W 073°30'2 2.2
2014-Oct-30 04:34N 45°30' W 073°31'3 3.2
2014-Oct-30 03:34N 45°33' W 073°31'1 0.8
2014-Oct-30 02:33N 45°34' W 073°31'0 0.0
2014-Oct-30 01:33N 45°34' W 073°31'0 0.0
2014-Oct-30 00:33N 45°34' W 073°31'0 0.0
2014-Oct-29 23:33N 45°34' W 073°31'0 0.0
2014-Oct-29 22:33N 45°34' W 073°31'0 0.0
2014-Oct-29 21:27N 45°34' W 073°31'0 0.0
2014-Oct-29 20:15N 45°34' W 073°31'0 0.0
2014-Oct-29 17:33N 45°34' W 073°31'1 0.8
2014-Oct-29 16:34N 45°34' W 073°30'7 6.7
2014-Oct-29 15:34N 45°41' W 073°27'9 9.1
2014-Oct-29 14:34N 45°48' W 073°20'10 9.4
2014-Oct-29 13:30N 45°57' W 073°13'9 7.6
2014-Oct-29 12:22N 46°04' W 073°05'8 8.4
2014-Oct-29 11:26N 46°09' W 072°57'9 9.9
2014-Oct-29 10:33N 46°14' W 072°46'8 8.3
2014-Oct-29 09:33N 46°17' W 072°36'7 7.5
2014-Oct-29 08:33N 46°23' W 072°28'10 9.9
2014-Oct-29 07:34N 46°27' W 072°15'  

Dump ship's entire track history